sensor_id;sensor_type;location;lat;lon;timestamp;temperature;humidity
70475;DHT22;57944;48.722;9.316;2022-08-19T00:01:04;20.50;99.90
70475;DHT22;57944;48.722;9.316;2022-08-19T00:03:35;20.10;99.90
70475;DHT22;57944;48.722;9.316;2022-08-19T00:06:05;19.80;99.90
70475;DHT22;57944;48.722;9.316;2022-08-19T00:08:36;19.50;99.90
70475;DHT22;57944;48.722;9.316;2022-08-19T00:11:09;19.40;99.90
70475;DHT22;57944;48.722;9.316;2022-08-19T00:13:53;19.40;99.90
70475;DHT22;57944;48.722;9.316;2022-08-19T00:16:25;19.20;99.90
70475;DHT22;57944;48.722;9.316;2022-08-19T00:18:55;19.20;99.90
70475;DHT22;57944;48.722;9.316;2022-08-19T00:21:27;19.10;99.90
70475;DHT22;57944;48.722;9.316;2022-08-19T00:23:57;18.90;99.90
70475;DHT22;57944;48.722;9.316;2022-08-19T00:26:28;18.80;99.90
70475;DHT22;57944;48.722;9.316;2022-08-19T00:29:01;18.70;99.90
70475;DHT22;57944;48.722;9.316;2022-08-19T00:31:31;18.60;99.90
70475;DHT22;57944;48.722;9.316;2022-08-19T00:34:02;18.60;99.90
70475;DHT22;57944;48.722;9.316;2022-08-19T00:36:32;18.50;99.90
70475;DHT22;57944;48.722;9.316;2022-08-19T00:39:04;18.50;99.90
70475;DHT22;57944;48.722;9.316;2022-08-19T00:41:34;18.40;99.90
70475;DHT22;57944;48.722;9.316;2022-08-19T00:44:10;18.40;99.90
70475;DHT22;57944;48.722;9.316;2022-08-19T00:46:44;18.40;99.90
70475;DHT22;57944;48.722;9.316;2022-08-19T00:49:27;18.40;99.90
70475;DHT22;57944;48.722;9.316;2022-08-19T00:52:05;18.30;99.90
70475;DHT22;57944;48.722;9.316;2022-08-19T00:54:40;18.30;99.90
70475;DHT22;57944;48.722;9.316;2022-08-19T00:57:17;18.30;99.90
70475;DHT22;57944;48.722;9.316;2022-08-19T00:59:55;18.30;99.90
70475;DHT22;57944;48.722;9.316;2022-08-19T01:02:30;18.30;99.90
70475;DHT22;57944;48.722;9.316;2022-08-19T01:05:05;18.30;99.90
70475;DHT22;57944;48.722;9.316;2022-08-19T01:07:40;18.30;99.90
70475;DHT22;57944;48.722;9.316;2022-08-19T01:10:15;18.20;99.90
70475;DHT22;57944;48.722;9.316;2022-08-19T01:12:49;18.30;99.90
70475;DHT22;57944;48.722;9.316;2022-08-19T01:15:27;18.30;99.90
70475;DHT22;57944;48.722;9.316;2022-08-19T01:18:05;18.30;99.90
70475;DHT22;57944;48.722;9.316;2022-08-19T01:20:37;18.30;99.90
70475;DHT22;57944;48.722;9.316;2022-08-19T01:23:12;18.30;99.90
70475;DHT22;57944;48.722;9.316;2022-08-19T01:25:45;18.40;99.90
70475;DHT22;57944;48.722;9.316;2022-08-19T01:28:21;18.40;99.90
70475;DHT22;57944;48.722;9.316;2022-08-19T01:31:07;18.50;99.90
70475;DHT22;57944;48.722;9.316;2022-08-19T01:33:55;18.60;99.90
70475;DHT22;57944;48.722;9.316;2022-08-19T01:36:29;18.60;99.90
70475;DHT22;57944;48.722;9.316;2022-08-19T01:39:06;18.60;99.90
70475;DHT22;57944;48.722;9.316;2022-08-19T01:41:39;18.70;99.90
70475;DHT22;57944;48.722;9.316;2022-08-19T01:44:10;18.80;99.90
70475;DHT22;57944;48.722;9.316;2022-08-19T01:46:47;18.90;99.90
70475;DHT22;57944;48.722;9.316;2022-08-19T01:49:20;19.00;99.90
70475;DHT22;57944;48.722;9.316;2022-08-19T01:51:52;19.10;99.90
70475;DHT22;57944;48.722;9.316;2022-08-19T01:54:27;19.20;99.90
70475;DHT22;57944;48.722;9.316;2022-08-19T01:57:01;19.30;99.90
70475;DHT22;57944;48.722;9.316;2022-08-19T01:59:33;19.40;99.90
70475;DHT22;57944;48.722;9.316;2022-08-19T02:02:05;19.50;99.90
70475;DHT22;57944;48.722;9.316;2022-08-19T02:04:36;19.50;99.90
70475;DHT22;57944;48.722;9.316;2022-08-19T02:07:08;19.50;99.90
70475;DHT22;57944;48.722;9.316;2022-08-19T02:09:40;19.50;99.90
70475;DHT22;57944;48.722;9.316;2022-08-19T02:12:10;19.60;99.90
70475;DHT22;57944;48.722;9.316;2022-08-19T02:14:40;19.60;99.90
70475;DHT22;57944;48.722;9.316;2022-08-19T02:17:10;19.60;99.90
70475;DHT22;57944;48.722;9.316;2022-08-19T02:19:40;19.60;99.90
70475;DHT22;57944;48.722;9.316;2022-08-19T02:22:10;19.60;99.90
70475;DHT22;57944;48.722;9.316;2022-08-19T02:24:43;19.60;99.90
70475;DHT22;57944;48.722;9.316;2022-08-19T02:27:43;19.50;99.90
70475;DHT22;57944;48.722;9.316;2022-08-19T02:30:17;19.60;99.90
70475;DHT22;57944;48.722;9.316;2022-08-19T02:32:48;19.70;99.90
70475;DHT22;57944;48.722;9.316;2022-08-19T02:35:18;19.60;99.90
70475;DHT22;57944;48.722;9.316;2022-08-19T02:37:48;19.60;99.90
70475;DHT22;57944;48.722;9.316;2022-08-19T02:40:32;19.50;99.90
70475;DHT22;57944;48.722;9.316;2022-08-19T02:43:06;19.30;99.90
70475;DHT22;57944;48.722;9.316;2022-08-19T02:45:38;19.20;99.90
70475;DHT22;57944;48.722;9.316;2022-08-19T02:48:09;19.20;99.90
70475;DHT22;57944;48.722;9.316;2022-08-19T02:50:49;19.20;99.90
70475;DHT22;57944;48.722;9.316;2022-08-19T02:53:24;19.30;99.90
70475;DHT22;57944;48.722;9.316;2022-08-19T02:55:56;19.30;99.90
70475;DHT22;57944;48.722;9.316;2022-08-19T02:58:29;19.30;99.90
70475;DHT22;57944;48.722;9.316;2022-08-19T03:00:59;19.30;99.90
70475;DHT22;57944;48.722;9.316;2022-08-19T03:03:29;19.30;99.90
70475;DHT22;57944;48.722;9.316;2022-08-19T03:06:04;19.30;99.90
70475;DHT22;57944;48.722;9.316;2022-08-19T03:08:37;19.40;99.90
70475;DHT22;57944;48.722;9.316;2022-08-19T03:11:13;19.40;99.90
70475;DHT22;57944;48.722;9.316;2022-08-19T03:13:47;19.50;99.90
70475;DHT22;57944;48.722;9.316;2022-08-19T03:16:20;19.50;99.90
70475;DHT22;57944;48.722;9.316;2022-08-19T03:18:53;19.50;99.90
70475;DHT22;57944;48.722;9.316;2022-08-19T03:21:28;19.50;99.90
70475;DHT22;57944;48.722;9.316;2022-08-19T03:24:02;19.30;99.90
70475;DHT22;57944;48.722;9.316;2022-08-19T03:26:38;19.30;99.90
70475;DHT22;57944;48.722;9.316;2022-08-19T03:29:13;19.30;99.90
70475;DHT22;57944;48.722;9.316;2022-08-19T03:31:56;19.20;99.90
70475;DHT22;57944;48.722;9.316;2022-08-19T03:34:29;19.20;99.90
70475;DHT22;57944;48.722;9.316;2022-08-19T03:37:05;19.10;99.90
70475;DHT22;57944;48.722;9.316;2022-08-19T03:39:37;19.10;99.90
70475;DHT22;57944;48.722;9.316;2022-08-19T03:42:10;19.10;99.90
70475;DHT22;57944;48.722;9.316;2022-08-19T03:45:02;19.10;99.90
70475;DHT22;57944;48.722;9.316;2022-08-19T03:47:34;19.10;99.90
70475;DHT22;57944;48.722;9.316;2022-08-19T03:50:05;19.10;99.90
70475;DHT22;57944;48.722;9.316;2022-08-19T03:52:36;19.10;99.90
70475;DHT22;57944;48.722;9.316;2022-08-19T03:55:11;19.20;99.90
70475;DHT22;57944;48.722;9.316;2022-08-19T03:57:41;19.20;99.90
70475;DHT22;57944;48.722;9.316;2022-08-19T04:00:15;19.20;99.90
70475;DHT22;57944;48.722;9.316;2022-08-19T04:02:46;19.20;99.90
70475;DHT22;57944;48.722;9.316;2022-08-19T04:05:26;19.20;99.90
70475;DHT22;57944;48.722;9.316;2022-08-19T04:07:57;19.10;99.90
70475;DHT22;57944;48.722;9.316;2022-08-19T04:10:28;19.10;99.90
70475;DHT22;57944;48.722;9.316;2022-08-19T04:12:58;19.10;99.90
70475;DHT22;57944;48.722;9.316;2022-08-19T04:15:31;19.10;99.90
70475;DHT22;57944;48.722;9.316;2022-08-19T04:18:06;19.20;99.90
70475;DHT22;57944;48.722;9.316;2022-08-19T04:20:42;19.20;99.90
70475;DHT22;57944;48.722;9.316;2022-08-19T04:23:14;19.10;99.90
70475;DHT22;57944;48.722;9.316;2022-08-19T04:25:45;19.10;99.90
70475;DHT22;57944;48.722;9.316;2022-08-19T04:28:15;19.00;99.90
70475;DHT22;57944;48.722;9.316;2022-08-19T04:30:50;19.10;99.90
70475;DHT22;57944;48.722;9.316;2022-08-19T04:33:25;19.10;99.90
70475;DHT22;57944;48.722;9.316;2022-08-19T04:35:56;19.10;99.90
70475;DHT22;57944;48.722;9.316;2022-08-19T04:38:26;19.10;99.90
70475;DHT22;57944;48.722;9.316;2022-08-19T04:40:56;19.10;99.90
70475;DHT22;57944;48.722;9.316;2022-08-19T04:43:39;19.10;99.90
70475;DHT22;57944;48.722;9.316;2022-08-19T04:46:14;19.10;99.90
70475;DHT22;57944;48.722;9.316;2022-08-19T04:49:07;19.10;99.90
70475;DHT22;57944;48.722;9.316;2022-08-19T04:51:40;19.10;99.90
70475;DHT22;57944;48.722;9.316;2022-08-19T04:54:12;19.10;99.90
70475;DHT22;57944;48.722;9.316;2022-08-19T04:57:03;19.10;99.90
70475;DHT22;57944;48.722;9.316;2022-08-19T04:59:34;19.20;99.90
70475;DHT22;57944;48.722;9.316;2022-08-19T05:02:08;19.20;99.90
70475;DHT22;57944;48.722;9.316;2022-08-19T05:04:38;19.20;99.90
70475;DHT22;57944;48.722;9.316;2022-08-19T05:07:08;19.20;99.90
70475;DHT22;57944;48.722;9.316;2022-08-19T05:09:38;19.30;99.90
70475;DHT22;57944;48.722;9.316;2022-08-19T05:12:24;19.30;99.90
70475;DHT22;57944;48.722;9.316;2022-08-19T05:14:56;19.40;99.90
70475;DHT22;57944;48.722;9.316;2022-08-19T05:17:29;19.40;99.90
70475;DHT22;57944;48.722;9.316;2022-08-19T05:20:05;19.40;99.90
70475;DHT22;57944;48.722;9.316;2022-08-19T05:22:49;19.30;99.90
70475;DHT22;57944;48.722;9.316;2022-08-19T05:25:21;19.30;99.90
70475;DHT22;57944;48.722;9.316;2022-08-19T05:27:51;19.40;99.90
70475;DHT22;57944;48.722;9.316;2022-08-19T05:30:21;19.50;99.90
70475;DHT22;57944;48.722;9.316;2022-08-19T05:33:14;19.60;99.90
70475;DHT22;57944;48.722;9.316;2022-08-19T05:35:44;19.60;99.90
70475;DHT22;57944;48.722;9.316;2022-08-19T05:38:16;19.60;99.90
70475;DHT22;57944;48.722;9.316;2022-08-19T05:40:46;19.60;99.90
70475;DHT22;57944;48.722;9.316;2022-08-19T05:43:16;19.70;99.90
70475;DHT22;57944;48.722;9.316;2022-08-19T05:45:46;19.60;99.90
70475;DHT22;57944;48.722;9.316;2022-08-19T05:48:20;19.60;99.90
70475;DHT22;57944;48.722;9.316;2022-08-19T05:50:50;19.60;99.90
70475;DHT22;57944;48.722;9.316;2022-08-19T05:53:20;19.60;99.90
70475;DHT22;57944;48.722;9.316;2022-08-19T05:55:50;19.70;99.90
70475;DHT22;57944;48.722;9.316;2022-08-19T05:58:22;19.70;99.90
70475;DHT22;57944;48.722;9.316;2022-08-19T06:00:54;19.60;99.90
70475;DHT22;57944;48.722;9.316;2022-08-19T06:03:26;19.60;99.90
70475;DHT22;57944;48.722;9.316;2022-08-19T06:05:56;19.50;99.90
70475;DHT22;57944;48.722;9.316;2022-08-19T06:08:29;19.50;99.90
70475;DHT22;57944;48.722;9.316;2022-08-19T06:11:15;19.60;99.90
70475;DHT22;57944;48.722;9.316;2022-08-19T06:13:49;19.70;99.90
70475;DHT22;57944;48.722;9.316;2022-08-19T06:16:27;19.70;99.90
70475;DHT22;57944;48.722;9.316;2022-08-19T06:19:05;19.60;99.90
70475;DHT22;57944;48.722;9.316;2022-08-19T06:21:38;19.70;99.90
70475;DHT22;57944;48.722;9.316;2022-08-19T06:24:12;19.80;99.90
70475;DHT22;57944;48.722;9.316;2022-08-19T06:26:46;19.90;99.90
70475;DHT22;57944;48.722;9.316;2022-08-19T06:29:21;19.90;99.90
70475;DHT22;57944;48.722;9.316;2022-08-19T06:31:55;19.80;99.90
70475;DHT22;57944;48.722;9.316;2022-08-19T06:34:31;19.90;99.90
70475;DHT22;57944;48.722;9.316;2022-08-19T06:37:03;19.80;99.90
70475;DHT22;57944;48.722;9.316;2022-08-19T06:39:35;19.70;99.90
70475;DHT22;57944;48.722;9.316;2022-08-19T06:42:09;19.80;99.90
70475;DHT22;57944;48.722;9.316;2022-08-19T06:44:45;19.70;99.90
70475;DHT22;57944;48.722;9.316;2022-08-19T06:47:21;19.60;99.90
70475;DHT22;57944;48.722;9.316;2022-08-19T06:49:58;19.40;99.90
70475;DHT22;57944;48.722;9.316;2022-08-19T06:52:33;19.40;99.90
70475;DHT22;57944;48.722;9.316;2022-08-19T06:55:05;19.40;99.90
70475;DHT22;57944;48.722;9.316;2022-08-19T06:57:36;19.40;99.90
70475;DHT22;57944;48.722;9.316;2022-08-19T07:00:10;19.40;99.90
70475;DHT22;57944;48.722;9.316;2022-08-19T07:02:41;19.20;99.90
70475;DHT22;57944;48.722;9.316;2022-08-19T07:05:24;19.10;99.90
70475;DHT22;57944;48.722;9.316;2022-08-19T07:07:54;19.10;99.90
70475;DHT22;57944;48.722;9.316;2022-08-19T07:10:30;19.00;99.90
70475;DHT22;57944;48.722;9.316;2022-08-19T07:13:01;18.90;99.90
70475;DHT22;57944;48.722;9.316;2022-08-19T07:15:32;18.80;99.90
70475;DHT22;57944;48.722;9.316;2022-08-19T07:18:05;18.70;99.90
70475;DHT22;57944;48.722;9.316;2022-08-19T07:20:40;18.70;99.90
70475;DHT22;57944;48.722;9.316;2022-08-19T07:23:11;18.60;99.90
70475;DHT22;57944;48.722;9.316;2022-08-19T07:25:42;18.60;99.90
70475;DHT22;57944;48.722;9.316;2022-08-19T07:28:19;18.50;99.90
70475;DHT22;57944;48.722;9.316;2022-08-19T07:30:53;18.50;99.90
70475;DHT22;57944;48.722;9.316;2022-08-19T07:33:23;18.50;99.90
70475;DHT22;57944;48.722;9.316;2022-08-19T07:35:56;18.50;99.90
70475;DHT22;57944;48.722;9.316;2022-08-19T07:38:26;18.60;99.90
70475;DHT22;57944;48.722;9.316;2022-08-19T07:40:56;18.50;99.90
70475;DHT22;57944;48.722;9.316;2022-08-19T07:43:27;18.60;99.90
70475;DHT22;57944;48.722;9.316;2022-08-19T07:46:00;18.70;99.90
70475;DHT22;57944;48.722;9.316;2022-08-19T07:48:31;18.70;99.90
70475;DHT22;57944;48.722;9.316;2022-08-19T07:51:07;18.80;99.90
70475;DHT22;57944;48.722;9.316;2022-08-19T07:53:40;18.90;99.90
70475;DHT22;57944;48.722;9.316;2022-08-19T07:56:12;18.90;99.90
70475;DHT22;57944;48.722;9.316;2022-08-19T07:58:45;18.80;99.90
70475;DHT22;57944;48.722;9.316;2022-08-19T08:01:19;18.90;99.90
70475;DHT22;57944;48.722;9.316;2022-08-19T08:03:54;18.90;99.90
70475;DHT22;57944;48.722;9.316;2022-08-19T08:06:40;19.00;99.90
70475;DHT22;57944;48.722;9.316;2022-08-19T08:09:26;18.90;99.90
70475;DHT22;57944;48.722;9.316;2022-08-19T08:12:07;18.90;99.90
70475;DHT22;57944;48.722;9.316;2022-08-19T08:15:02;18.90;99.90
70475;DHT22;57944;48.722;9.316;2022-08-19T08:17:39;18.90;99.90
70475;DHT22;57944;48.722;9.316;2022-08-19T08:20:17;18.90;99.90
70475;DHT22;57944;48.722;9.316;2022-08-19T08:22:50;19.10;99.90
70475;DHT22;57944;48.722;9.316;2022-08-19T08:25:34;19.10;99.90
70475;DHT22;57944;48.722;9.316;2022-08-19T08:28:05;18.90;99.90
70475;DHT22;57944;48.722;9.316;2022-08-19T08:30:43;19.00;99.90
70475;DHT22;57944;48.722;9.316;2022-08-19T08:33:19;19.10;99.90
70475;DHT22;57944;48.722;9.316;2022-08-19T08:36:01;19.10;99.90
70475;DHT22;57944;48.722;9.316;2022-08-19T08:38:34;19.00;99.90
70475;DHT22;57944;48.722;9.316;2022-08-19T08:41:13;19.00;99.90
70475;DHT22;57944;48.722;9.316;2022-08-19T08:43:53;19.00;99.90
70475;DHT22;57944;48.722;9.316;2022-08-19T08:46:36;19.00;99.90
70475;DHT22;57944;48.722;9.316;2022-08-19T08:49:19;19.10;99.90
70475;DHT22;57944;48.722;9.316;2022-08-19T08:52:02;19.20;99.90
70475;DHT22;57944;48.722;9.316;2022-08-19T08:54:40;19.30;99.90
70475;DHT22;57944;48.722;9.316;2022-08-19T08:57:27;19.30;99.90
70475;DHT22;57944;48.722;9.316;2022-08-19T09:00:12;19.50;99.90
70475;DHT22;57944;48.722;9.316;2022-08-19T09:02:48;19.60;99.90
70475;DHT22;57944;48.722;9.316;2022-08-19T09:05:18;19.50;99.90
70475;DHT22;57944;48.722;9.316;2022-08-19T09:07:57;19.50;99.90
70475;DHT22;57944;48.722;9.316;2022-08-19T09:10:39;19.50;99.90
70475;DHT22;57944;48.722;9.316;2022-08-19T09:13:28;19.50;99.90
70475;DHT22;57944;48.722;9.316;2022-08-19T09:16:09;19.50;99.90
70475;DHT22;57944;48.722;9.316;2022-08-19T09:18:43;19.70;99.90
70475;DHT22;57944;48.722;9.316;2022-08-19T09:21:15;19.90;99.90
70475;DHT22;57944;48.722;9.316;2022-08-19T09:23:52;20.20;99.90
70475;DHT22;57944;48.722;9.316;2022-08-19T09:26:26;20.30;99.90
70475;DHT22;57944;48.722;9.316;2022-08-19T09:29:17;20.50;99.90
70475;DHT22;57944;48.722;9.316;2022-08-19T09:31:48;20.60;99.90
70475;DHT22;57944;48.722;9.316;2022-08-19T09:34:19;20.60;99.90
70475;DHT22;57944;48.722;9.316;2022-08-19T09:36:49;20.50;99.90
70475;DHT22;57944;48.722;9.316;2022-08-19T09:39:22;20.50;99.90
70475;DHT22;57944;48.722;9.316;2022-08-19T09:42:04;20.50;99.90
70475;DHT22;57944;48.722;9.316;2022-08-19T09:44:56;20.30;99.90
70475;DHT22;57944;48.722;9.316;2022-08-19T09:47:30;20.10;99.90
70475;DHT22;57944;48.722;9.316;2022-08-19T09:50:08;20.00;99.90
70475;DHT22;57944;48.722;9.316;2022-08-19T09:52:42;19.90;99.90
70475;DHT22;57944;48.722;9.316;2022-08-19T09:55:24;19.70;99.90
70475;DHT22;57944;48.722;9.316;2022-08-19T09:58:01;19.50;99.90
70475;DHT22;57944;48.722;9.316;2022-08-19T10:00:32;19.50;99.90
70475;DHT22;57944;48.722;9.316;2022-08-19T10:03:02;19.50;99.90
70475;DHT22;57944;48.722;9.316;2022-08-19T10:05:32;19.60;99.90
70475;DHT22;57944;48.722;9.316;2022-08-19T10:08:23;19.60;99.90
70475;DHT22;57944;48.722;9.316;2022-08-19T10:10:55;19.70;99.90
70475;DHT22;57944;48.722;9.316;2022-08-19T10:13:48;19.70;99.90
70475;DHT22;57944;48.722;9.316;2022-08-19T10:16:20;19.70;99.90
70475;DHT22;57944;48.722;9.316;2022-08-19T10:18:56;19.80;99.90
70475;DHT22;57944;48.722;9.316;2022-08-19T10:21:32;19.70;99.90
70475;DHT22;57944;48.722;9.316;2022-08-19T10:24:06;19.60;99.90
70475;DHT22;57944;48.722;9.316;2022-08-19T10:26:38;19.70;99.90
70475;DHT22;57944;48.722;9.316;2022-08-19T10:29:24;19.80;99.90
70475;DHT22;57944;48.722;9.316;2022-08-19T10:31:59;19.80;99.90
70475;DHT22;57944;48.722;9.316;2022-08-19T10:34:30;19.60;99.90
70475;DHT22;57944;48.722;9.316;2022-08-19T10:37:03;19.60;99.90
70475;DHT22;57944;48.722;9.316;2022-08-19T10:39:36;19.50;99.90
70475;DHT22;57944;48.722;9.316;2022-08-19T10:42:09;19.60;99.90
70475;DHT22;57944;48.722;9.316;2022-08-19T10:44:43;19.70;99.90
70475;DHT22;57944;48.722;9.316;2022-08-19T10:47:14;20.00;99.90
70475;DHT22;57944;48.722;9.316;2022-08-19T10:49:57;20.00;99.90
70475;DHT22;57944;48.722;9.316;2022-08-19T10:52:40;20.20;99.90
70475;DHT22;57944;48.722;9.316;2022-08-19T10:55:17;20.20;99.90
70475;DHT22;57944;48.722;9.316;2022-08-19T10:58:01;20.30;99.90
70475;DHT22;57944;48.722;9.316;2022-08-19T11:00:36;20.00;99.90
70475;DHT22;57944;48.722;9.316;2022-08-19T11:03:07;19.80;99.90
70475;DHT22;57944;48.722;9.316;2022-08-19T11:05:37;19.70;99.90
70475;DHT22;57944;48.722;9.316;2022-08-19T11:08:08;19.60;99.90
70475;DHT22;57944;48.722;9.316;2022-08-19T11:10:50;19.50;99.90
70475;DHT22;57944;48.722;9.316;2022-08-19T11:13:25;19.50;99.90
70475;DHT22;57944;48.722;9.316;2022-08-19T11:16:03;19.40;99.90
70475;DHT22;57944;48.722;9.316;2022-08-19T11:18:37;19.50;99.90
70475;DHT22;57944;48.722;9.316;2022-08-19T11:21:11;19.60;99.90
70475;DHT22;57944;48.722;9.316;2022-08-19T11:23:44;19.60;99.90
70475;DHT22;57944;48.722;9.316;2022-08-19T11:26:16;19.70;99.90
70475;DHT22;57944;48.722;9.316;2022-08-19T11:28:48;19.70;99.90
70475;DHT22;57944;48.722;9.316;2022-08-19T11:31:26;19.80;99.90
70475;DHT22;57944;48.722;9.316;2022-08-19T11:34:00;19.80;99.90
70475;DHT22;57944;48.722;9.316;2022-08-19T11:36:33;19.70;99.90
70475;DHT22;57944;48.722;9.316;2022-08-19T11:39:05;19.60;99.90
70475;DHT22;57944;48.722;9.316;2022-08-19T11:41:36;19.70;99.90
70475;DHT22;57944;48.722;9.316;2022-08-19T11:44:06;19.80;99.90
70475;DHT22;57944;48.722;9.316;2022-08-19T11:46:40;19.90;99.90
70475;DHT22;57944;48.722;9.316;2022-08-19T11:49:14;20.00;99.90
70475;DHT22;57944;48.722;9.316;2022-08-19T11:51:46;20.00;99.90
70475;DHT22;57944;48.722;9.316;2022-08-19T11:54:19;20.10;99.90
70475;DHT22;57944;48.722;9.316;2022-08-19T11:56:49;20.20;99.90
70475;DHT22;57944;48.722;9.316;2022-08-19T11:59:22;20.20;99.90
70475;DHT22;57944;48.722;9.316;2022-08-19T12:01:58;20.20;99.90
70475;DHT22;57944;48.722;9.316;2022-08-19T12:04:28;20.20;99.90
70475;DHT22;57944;48.722;9.316;2022-08-19T12:06:58;20.20;99.90
70475;DHT22;57944;48.722;9.316;2022-08-19T12:09:28;20.20;99.90
70475;DHT22;57944;48.722;9.316;2022-08-19T12:12:01;20.10;99.90
70475;DHT22;57944;48.722;9.316;2022-08-19T12:14:31;20.10;99.90
70475;DHT22;57944;48.722;9.316;2022-08-19T12:17:04;20.10;99.90
70475;DHT22;57944;48.722;9.316;2022-08-19T12:19:36;20.10;99.90
70475;DHT22;57944;48.722;9.316;2022-08-19T12:22:06;20.00;99.90
70475;DHT22;57944;48.722;9.316;2022-08-19T12:24:37;20.10;99.90
70475;DHT22;57944;48.722;9.316;2022-08-19T12:27:07;20.00;99.90
70475;DHT22;57944;48.722;9.316;2022-08-19T12:29:39;20.00;99.90
70475;DHT22;57944;48.722;9.316;2022-08-19T12:32:11;20.00;99.90
70475;DHT22;57944;48.722;9.316;2022-08-19T12:34:41;19.90;99.90
70475;DHT22;57944;48.722;9.316;2022-08-19T12:37:14;19.90;99.90
70475;DHT22;57944;48.722;9.316;2022-08-19T12:39:44;19.80;99.90
70475;DHT22;57944;48.722;9.316;2022-08-19T12:42:14;19.80;99.90
70475;DHT22;57944;48.722;9.316;2022-08-19T12:44:45;20.00;99.90
70475;DHT22;57944;48.722;9.316;2022-08-19T12:47:18;20.00;99.90
70475;DHT22;57944;48.722;9.316;2022-08-19T12:49:49;20.00;99.90
70475;DHT22;57944;48.722;9.316;2022-08-19T12:52:23;20.10;99.90
70475;DHT22;57944;48.722;9.316;2022-08-19T12:54:56;20.20;99.90
70475;DHT22;57944;48.722;9.316;2022-08-19T12:57:27;20.10;99.90
70475;DHT22;57944;48.722;9.316;2022-08-19T13:00:03;20.10;99.90
70475;DHT22;57944;48.722;9.316;2022-08-19T13:02:41;20.30;99.90
70475;DHT22;57944;48.722;9.316;2022-08-19T13:05:16;20.30;99.90
70475;DHT22;57944;48.722;9.316;2022-08-19T13:07:51;20.40;99.90
70475;DHT22;57944;48.722;9.316;2022-08-19T13:10:24;20.40;99.90
70475;DHT22;57944;48.722;9.316;2022-08-19T13:12:57;20.10;99.90
70475;DHT22;57944;48.722;9.316;2022-08-19T13:15:28;20.10;99.90
70475;DHT22;57944;48.722;9.316;2022-08-19T13:18:01;19.90;99.90
70475;DHT22;57944;48.722;9.316;2022-08-19T13:20:32;19.90;99.90
70475;DHT22;57944;48.722;9.316;2022-08-19T13:23:02;19.90;99.90
70475;DHT22;57944;48.722;9.316;2022-08-19T13:25:33;19.80;99.90
70475;DHT22;57944;48.722;9.316;2022-08-19T13:28:03;19.70;99.90
70475;DHT22;57944;48.722;9.316;2022-08-19T13:30:38;19.70;99.90
70475;DHT22;57944;48.722;9.316;2022-08-19T13:33:23;19.50;99.90
70475;DHT22;57944;48.722;9.316;2022-08-19T13:35:57;19.50;99.90
70475;DHT22;57944;48.722;9.316;2022-08-19T13:38:28;19.40;99.90
70475;DHT22;57944;48.722;9.316;2022-08-19T13:41:04;19.30;99.90
70475;DHT22;57944;48.722;9.316;2022-08-19T13:43:40;19.40;99.90
70475;DHT22;57944;48.722;9.316;2022-08-19T13:46:11;19.40;99.90
70475;DHT22;57944;48.722;9.316;2022-08-19T13:48:45;19.40;99.90
70475;DHT22;57944;48.722;9.316;2022-08-19T13:51:17;19.40;99.90
70475;DHT22;57944;48.722;9.316;2022-08-19T13:53:47;19.50;99.90
70475;DHT22;57944;48.722;9.316;2022-08-19T13:56:19;19.50;99.90
70475;DHT22;57944;48.722;9.316;2022-08-19T13:58:52;19.50;99.90
70475;DHT22;57944;48.722;9.316;2022-08-19T14:01:25;19.40;99.90
70475;DHT22;57944;48.722;9.316;2022-08-19T14:03:58;19.40;99.90
70475;DHT22;57944;48.722;9.316;2022-08-19T14:06:28;19.40;99.90
70475;DHT22;57944;48.722;9.316;2022-08-19T14:08:59;19.40;99.90
70475;DHT22;57944;48.722;9.316;2022-08-19T14:11:30;19.40;99.90
70475;DHT22;57944;48.722;9.316;2022-08-19T14:14:00;19.50;99.90
70475;DHT22;57944;48.722;9.316;2022-08-19T14:16:30;19.40;99.90
70475;DHT22;57944;48.722;9.316;2022-08-19T14:19:03;19.40;99.90
70475;DHT22;57944;48.722;9.316;2022-08-19T14:21:34;19.30;99.90
70475;DHT22;57944;48.722;9.316;2022-08-19T14:24:07;19.30;99.90
70475;DHT22;57944;48.722;9.316;2022-08-19T14:26:38;19.30;99.90
70475;DHT22;57944;48.722;9.316;2022-08-19T14:29:09;19.30;99.90
70475;DHT22;57944;48.722;9.316;2022-08-19T14:31:39;19.30;99.90
70475;DHT22;57944;48.722;9.316;2022-08-19T14:34:13;19.20;99.90
70475;DHT22;57944;48.722;9.316;2022-08-19T14:36:43;19.20;99.90
70475;DHT22;57944;48.722;9.316;2022-08-19T14:39:15;19.20;99.90
70475;DHT22;57944;48.722;9.316;2022-08-19T14:41:45;19.30;99.90
70475;DHT22;57944;48.722;9.316;2022-08-19T14:44:15;19.20;99.90
70475;DHT22;57944;48.722;9.316;2022-08-19T14:46:46;19.20;99.90
70475;DHT22;57944;48.722;9.316;2022-08-19T14:49:19;19.30;99.90
70475;DHT22;57944;48.722;9.316;2022-08-19T14:52:01;19.30;99.90
70475;DHT22;57944;48.722;9.316;2022-08-19T14:54:32;19.50;99.90
70475;DHT22;57944;48.722;9.316;2022-08-19T14:57:02;19.60;99.90
70475;DHT22;57944;48.722;9.316;2022-08-19T14:59:34;19.80;99.90
70475;DHT22;57944;48.722;9.316;2022-08-19T15:02:05;19.80;99.90
70475;DHT22;57944;48.722;9.316;2022-08-19T15:04:58;19.80;99.90
70475;DHT22;57944;48.722;9.316;2022-08-19T15:07:28;19.90;99.90
70475;DHT22;57944;48.722;9.316;2022-08-19T15:10:02;19.90;99.90
70475;DHT22;57944;48.722;9.316;2022-08-19T15:12:34;19.80;99.90
70475;DHT22;57944;48.722;9.316;2022-08-19T15:15:06;19.80;99.90
70475;DHT22;57944;48.722;9.316;2022-08-19T15:17:40;19.80;99.90
70475;DHT22;57944;48.722;9.316;2022-08-19T15:20:17;19.80;99.90
70475;DHT22;57944;48.722;9.316;2022-08-19T15:22:49;19.90;99.90
70475;DHT22;57944;48.722;9.316;2022-08-19T15:25:19;20.00;99.90
70475;DHT22;57944;48.722;9.316;2022-08-19T15:27:49;19.90;99.90
70475;DHT22;57944;48.722;9.316;2022-08-19T15:30:22;20.00;99.90
70475;DHT22;57944;48.722;9.316;2022-08-19T15:32:55;20.10;99.90
70475;DHT22;57944;48.722;9.316;2022-08-19T15:35:29;20.00;99.90
70475;DHT22;57944;48.722;9.316;2022-08-19T15:37:59;20.10;99.90
70475;DHT22;57944;48.722;9.316;2022-08-19T15:40:30;20.20;99.90
70475;DHT22;57944;48.722;9.316;2022-08-19T15:43:00;20.50;99.90
70475;DHT22;57944;48.722;9.316;2022-08-19T15:45:30;20.70;99.90
70475;DHT22;57944;48.722;9.316;2022-08-19T15:48:02;21.00;99.90
70475;DHT22;57944;48.722;9.316;2022-08-19T15:50:36;21.00;99.90
70475;DHT22;57944;48.722;9.316;2022-08-19T15:53:08;21.00;99.90
70475;DHT22;57944;48.722;9.316;2022-08-19T15:55:43;21.00;99.90
70475;DHT22;57944;48.722;9.316;2022-08-19T15:58:15;21.10;99.90
70475;DHT22;57944;48.722;9.316;2022-08-19T16:00:59;20.90;99.90
70475;DHT22;57944;48.722;9.316;2022-08-19T16:03:46;20.80;99.90
70475;DHT22;57944;48.722;9.316;2022-08-19T16:06:33;20.80;99.90
70475;DHT22;57944;48.722;9.316;2022-08-19T16:09:04;20.80;99.90
70475;DHT22;57944;48.722;9.316;2022-08-19T16:11:35;20.80;99.90
70475;DHT22;57944;48.722;9.316;2022-08-19T16:14:06;21.10;99.90